sensor_id;sensor_type;location;lat;lon;timestamp;P1;durP1;ratioP1;P2;durP2;ratioP2
77724;SDS011;66892;53.236;6.550;2023-04-28T00:00:25;20.48;;;6.75;;
77724;SDS011;66892;53.236;6.550;2023-04-28T00:02:51;21.00;;;7.05;;
77724;SDS011;66892;53.236;6.550;2023-04-28T00:05:18;18.13;;;6.85;;
77724;SDS011;66892;53.236;6.550;2023-04-28T00:07:44;17.75;;;6.80;;
77724;SDS011;66892;53.236;6.550;2023-04-28T00:10:12;19.63;;;6.28;;
77724;SDS011;66892;53.236;6.550;2023-04-28T00:12:38;19.75;;;6.68;;
77724;SDS011;66892;53.236;6.550;2023-04-28T00:15:05;16.88;;;6.70;;
77724;SDS011;66892;53.236;6.550;2023-04-28T00:17:32;20.83;;;6.45;;
77724;SDS011;66892;53.236;6.550;2023-04-28T00:19:58;17.35;;;6.20;;
77724;SDS011;66892;53.236;6.550;2023-04-28T00:22:24;19.92;;;6.72;;
77724;SDS011;66892;53.236;6.550;2023-04-28T00:24:50;19.05;;;6.30;;
77724;SDS011;66892;53.236;6.550;2023-04-28T00:27:17;20.25;;;6.55;;
77724;SDS011;66892;53.236;6.550;2023-04-28T00:29:43;18.38;;;7.00;;
77724;SDS011;66892;53.236;6.550;2023-04-28T00:32:09;18.85;;;6.57;;
77724;SDS011;66892;53.236;6.550;2023-04-28T00:34:35;18.10;;;6.18;;
77724;SDS011;66892;53.236;6.550;2023-04-28T00:37:02;22.23;;;7.57;;
77724;SDS011;66892;53.236;6.550;2023-04-28T00:39:28;22.27;;;6.63;;
77724;SDS011;66892;53.236;6.550;2023-04-28T00:41:54;20.80;;;6.70;;
77724;SDS011;66892;53.236;6.550;2023-04-28T00:44:22;28.15;;;7.15;;
77724;SDS011;66892;53.236;6.550;2023-04-28T00:46:48;17.20;;;5.93;;
77724;SDS011;66892;53.236;6.550;2023-04-28T00:49:14;16.95;;;5.75;;
77724;SDS011;66892;53.236;6.550;2023-04-28T00:51:40;16.00;;;6.25;;
77724;SDS011;66892;53.236;6.550;2023-04-28T00:54:06;16.88;;;5.90;;
77724;SDS011;66892;53.236;6.550;2023-04-28T00:56:33;14.32;;;5.72;;
77724;SDS011;66892;53.236;6.550;2023-04-28T00:58:59;15.25;;;6.05;;
77724;SDS011;66892;53.236;6.550;2023-04-28T01:01:26;17.08;;;6.10;;
77724;SDS011;66892;53.236;6.550;2023-04-28T01:03:52;16.27;;;5.55;;
77724;SDS011;66892;53.236;6.550;2023-04-28T01:06:18;16.73;;;6.20;;
77724;SDS011;66892;53.236;6.550;2023-04-28T01:08:46;18.10;;;7.00;;
77724;SDS011;66892;53.236;6.550;2023-04-28T01:11:13;16.50;;;5.90;;
77724;SDS011;66892;53.236;6.550;2023-04-28T01:13:39;17.88;;;6.03;;
77724;SDS011;66892;53.236;6.550;2023-04-28T01:16:05;17.77;;;6.70;;
77724;SDS011;66892;53.236;6.550;2023-04-28T01:18:33;16.98;;;6.13;;
77724;SDS011;66892;53.236;6.550;2023-04-28T01:20:59;17.65;;;5.70;;
77724;SDS011;66892;53.236;6.550;2023-04-28T01:23:25;20.00;;;6.28;;
77724;SDS011;66892;53.236;6.550;2023-04-28T01:25:53;20.17;;;6.68;;
77724;SDS011;66892;53.236;6.550;2023-04-28T01:28:19;19.58;;;6.82;;
77724;SDS011;66892;53.236;6.550;2023-04-28T01:30:45;21.58;;;6.32;;
77724;SDS011;66892;53.236;6.550;2023-04-28T01:33:11;20.15;;;6.55;;
77724;SDS011;66892;53.236;6.550;2023-04-28T01:35:37;20.83;;;6.35;;
77724;SDS011;66892;53.236;6.550;2023-04-28T01:38:03;18.77;;;6.20;;
77724;SDS011;66892;53.236;6.550;2023-04-28T01:40:29;18.25;;;6.65;;
77724;SDS011;66892;53.236;6.550;2023-04-28T01:42:56;20.70;;;6.28;;
77724;SDS011;66892;53.236;6.550;2023-04-28T01:45:22;15.35;;;6.00;;
77724;SDS011;66892;53.236;6.550;2023-04-28T01:47:48;21.48;;;6.95;;
77724;SDS011;66892;53.236;6.550;2023-04-28T01:50:14;20.02;;;7.10;;
77724;SDS011;66892;53.236;6.550;2023-04-28T01:52:40;22.70;;;6.93;;
77724;SDS011;66892;53.236;6.550;2023-04-28T01:55:07;22.65;;;7.28;;
77724;SDS011;66892;53.236;6.550;2023-04-28T01:57:33;21.85;;;7.93;;
77724;SDS011;66892;53.236;6.550;2023-04-28T02:00:02;23.00;;;7.57;;
77724;SDS011;66892;53.236;6.550;2023-04-28T02:02:29;20.73;;;7.82;;
77724;SDS011;66892;53.236;6.550;2023-04-28T02:04:55;22.17;;;8.55;;
77724;SDS011;66892;53.236;6.550;2023-04-28T02:07:22;21.63;;;7.60;;
77724;SDS011;66892;53.236;6.550;2023-04-28T02:09:48;24.70;;;8.63;;
77724;SDS011;66892;53.236;6.550;2023-04-28T02:12:14;27.27;;;8.70;;
77724;SDS011;66892;53.236;6.550;2023-04-28T02:14:42;27.48;;;8.18;;
77724;SDS011;66892;53.236;6.550;2023-04-28T02:17:09;26.08;;;8.32;;
77724;SDS011;66892;53.236;6.550;2023-04-28T02:19:35;21.30;;;7.45;;
77724;SDS011;66892;53.236;6.550;2023-04-28T02:22:03;27.65;;;8.93;;
77724;SDS011;66892;53.236;6.550;2023-04-28T02:24:29;27.27;;;8.63;;
77724;SDS011;66892;53.236;6.550;2023-04-28T02:26:55;26.70;;;9.10;;
77724;SDS011;66892;53.236;6.550;2023-04-28T02:29:21;28.73;;;9.68;;
77724;SDS011;66892;53.236;6.550;2023-04-28T02:31:49;22.40;;;8.75;;
77724;SDS011;66892;53.236;6.550;2023-04-28T02:34:16;30.08;;;9.93;;
77724;SDS011;66892;53.236;6.550;2023-04-28T02:36:42;30.52;;;9.80;;
77724;SDS011;66892;53.236;6.550;2023-04-28T02:39:08;32.60;;;9.35;;
77724;SDS011;66892;53.236;6.550;2023-04-28T02:41:34;35.25;;;10.13;;
77724;SDS011;66892;53.236;6.550;2023-04-28T02:44:00;35.90;;;11.20;;
77724;SDS011;66892;53.236;6.550;2023-04-28T02:46:26;29.90;;;10.52;;
77724;SDS011;66892;53.236;6.550;2023-04-28T02:48:52;36.00;;;10.65;;
77724;SDS011;66892;53.236;6.550;2023-04-28T02:51:20;35.08;;;10.13;;
77724;SDS011;66892;53.236;6.550;2023-04-28T02:53:46;30.90;;;10.90;;
77724;SDS011;66892;53.236;6.550;2023-04-28T02:56:12;32.58;;;10.55;;
77724;SDS011;66892;53.236;6.550;2023-04-28T02:58:38;32.78;;;10.05;;
77724;SDS011;66892;53.236;6.550;2023-04-28T03:01:04;34.25;;;10.93;;
77724;SDS011;66892;53.236;6.550;2023-04-28T03:03:30;37.45;;;11.20;;
77724;SDS011;66892;53.236;6.550;2023-04-28T03:05:56;34.45;;;10.63;;
77724;SDS011;66892;53.236;6.550;2023-04-28T03:08:23;34.72;;;11.20;;
77724;SDS011;66892;53.236;6.550;2023-04-28T03:10:49;37.88;;;12.48;;
77724;SDS011;66892;53.236;6.550;2023-04-28T03:13:15;37.95;;;10.90;;
77724;SDS011;66892;53.236;6.550;2023-04-28T03:15:41;37.15;;;11.40;;
77724;SDS011;66892;53.236;6.550;2023-04-28T03:18:07;35.95;;;11.20;;
77724;SDS011;66892;53.236;6.550;2023-04-28T03:20:33;31.58;;;10.23;;
77724;SDS011;66892;53.236;6.550;2023-04-28T03:22:59;37.10;;;11.45;;
77724;SDS011;66892;53.236;6.550;2023-04-28T03:25:28;43.72;;;12.23;;
77724;SDS011;66892;53.236;6.550;2023-04-28T03:27:54;43.40;;;12.80;;
77724;SDS011;66892;53.236;6.550;2023-04-28T03:30:20;37.80;;;12.55;;
77724;SDS011;66892;53.236;6.550;2023-04-28T03:32:46;42.90;;;13.90;;
77724;SDS011;66892;53.236;6.550;2023-04-28T03:35:12;43.28;;;12.25;;
77724;SDS011;66892;53.236;6.550;2023-04-28T03:37:38;41.22;;;12.57;;
77724;SDS011;66892;53.236;6.550;2023-04-28T03:40:05;39.70;;;12.38;;
77724;SDS011;66892;53.236;6.550;2023-04-28T03:42:34;40.42;;;12.70;;
77724;SDS011;66892;53.236;6.550;2023-04-28T03:45:00;41.80;;;11.93;;
77724;SDS011;66892;53.236;6.550;2023-04-28T03:47:26;40.92;;;11.80;;
77724;SDS011;66892;53.236;6.550;2023-04-28T03:49:52;41.75;;;13.40;;
77724;SDS011;66892;53.236;6.550;2023-04-28T03:52:18;48.13;;;13.00;;
77724;SDS011;66892;53.236;6.550;2023-04-28T03:54:45;46.38;;;13.25;;
77724;SDS011;66892;53.236;6.550;2023-04-28T03:57:11;46.95;;;12.13;;
77724;SDS011;66892;53.236;6.550;2023-04-28T03:59:38;45.83;;;13.18;;
77724;SDS011;66892;53.236;6.550;2023-04-28T04:02:04;42.95;;;12.55;;
77724;SDS011;66892;53.236;6.550;2023-04-28T04:04:30;40.15;;;11.68;;
77724;SDS011;66892;53.236;6.550;2023-04-28T04:06:56;42.30;;;12.63;;
77724;SDS011;66892;53.236;6.550;2023-04-28T04:09:22;36.47;;;11.30;;
77724;SDS011;66892;53.236;6.550;2023-04-28T04:11:48;46.67;;;12.15;;
77724;SDS011;66892;53.236;6.550;2023-04-28T04:14:14;45.58;;;12.18;;
77724;SDS011;66892;53.236;6.550;2023-04-28T04:16:42;35.17;;;11.05;;
77724;SDS011;66892;53.236;6.550;2023-04-28T04:19:08;37.55;;;11.65;;
77724;SDS011;66892;53.236;6.550;2023-04-28T04:21:34;38.42;;;13.15;;
77724;SDS011;66892;53.236;6.550;2023-04-28T04:24:00;43.38;;;13.52;;
77724;SDS011;66892;53.236;6.550;2023-04-28T04:26:26;40.33;;;12.88;;
77724;SDS011;66892;53.236;6.550;2023-04-28T04:28:52;43.33;;;12.02;;
77724;SDS011;66892;53.236;6.550;2023-04-28T04:31:18;38.80;;;12.30;;
77724;SDS011;66892;53.236;6.550;2023-04-28T04:33:45;42.13;;;11.50;;
77724;SDS011;66892;53.236;6.550;2023-04-28T04:36:12;41.80;;;13.48;;
77724;SDS011;66892;53.236;6.550;2023-04-28T04:38:38;37.90;;;11.60;;
77724;SDS011;66892;53.236;6.550;2023-04-28T04:41:04;39.20;;;12.15;;
77724;SDS011;66892;53.236;6.550;2023-04-28T04:43:30;46.35;;;12.90;;
77724;SDS011;66892;53.236;6.550;2023-04-28T04:45:56;40.80;;;12.25;;
77724;SDS011;66892;53.236;6.550;2023-04-28T04:48:22;38.38;;;11.95;;
77724;SDS011;66892;53.236;6.550;2023-04-28T04:50:49;39.47;;;13.30;;
77724;SDS011;66892;53.236;6.550;2023-04-28T04:53:15;37.28;;;11.48;;
77724;SDS011;66892;53.236;6.550;2023-04-28T04:55:41;34.08;;;10.75;;
77724;SDS011;66892;53.236;6.550;2023-04-28T04:58:07;36.10;;;11.23;;
77724;SDS011;66892;53.236;6.550;2023-04-28T05:00:33;38.53;;;11.13;;
77724;SDS011;66892;53.236;6.550;2023-04-28T05:03:00;36.88;;;11.35;;
77724;SDS011;66892;53.236;6.550;2023-04-28T05:05:28;33.92;;;10.13;;
77724;SDS011;66892;53.236;6.550;2023-04-28T05:07:55;33.47;;;10.48;;
77724;SDS011;66892;53.236;6.550;2023-04-28T05:10:23;35.50;;;11.40;;
77724;SDS011;66892;53.236;6.550;2023-04-28T05:12:49;31.58;;;10.70;;
77724;SDS011;66892;53.236;6.550;2023-04-28T05:15:15;32.72;;;11.15;;
77724;SDS011;66892;53.236;6.550;2023-04-28T05:17:41;35.45;;;10.55;;
77724;SDS011;66892;53.236;6.550;2023-04-28T05:20:07;37.40;;;11.02;;
77724;SDS011;66892;53.236;6.550;2023-04-28T05:22:34;33.47;;;10.00;;
77724;SDS011;66892;53.236;6.550;2023-04-28T05:25:01;34.05;;;10.35;;
77724;SDS011;66892;53.236;6.550;2023-04-28T05:27:28;33.28;;;11.23;;
77724;SDS011;66892;53.236;6.550;2023-04-28T05:29:54;30.63;;;8.82;;
77724;SDS011;66892;53.236;6.550;2023-04-28T05:32:20;32.03;;;9.13;;
77724;SDS011;66892;53.236;6.550;2023-04-28T05:34:46;31.98;;;11.45;;
77724;SDS011;66892;53.236;6.550;2023-04-28T05:37:12;36.17;;;10.82;;
77724;SDS011;66892;53.236;6.550;2023-04-28T05:39:38;34.33;;;9.88;;
77724;SDS011;66892;53.236;6.550;2023-04-28T05:42:06;31.42;;;10.13;;
77724;SDS011;66892;53.236;6.550;2023-04-28T05:44:32;31.08;;;10.38;;
77724;SDS011;66892;53.236;6.550;2023-04-28T05:46:58;30.25;;;9.98;;
77724;SDS011;66892;53.236;6.550;2023-04-28T05:49:24;30.70;;;10.23;;
77724;SDS011;66892;53.236;6.550;2023-04-28T05:51:50;36.28;;;11.50;;
77724;SDS011;66892;53.236;6.550;2023-04-28T05:54:16;34.88;;;10.60;;
77724;SDS011;66892;53.236;6.550;2023-04-28T05:56:42;32.97;;;10.32;;
77724;SDS011;66892;53.236;6.550;2023-04-28T05:59:10;31.85;;;10.13;;
77724;SDS011;66892;53.236;6.550;2023-04-28T06:01:36;29.08;;;9.65;;
77724;SDS011;66892;53.236;6.550;2023-04-28T06:04:03;34.00;;;10.02;;
77724;SDS011;66892;53.236;6.550;2023-04-28T06:06:29;26.15;;;9.35;;
77724;SDS011;66892;53.236;6.550;2023-04-28T06:08:56;32.65;;;9.90;;
77724;SDS011;66892;53.236;6.550;2023-04-28T06:11:22;32.22;;;10.10;;
77724;SDS011;66892;53.236;6.550;2023-04-28T06:13:49;28.48;;;10.80;;
77724;SDS011;66892;53.236;6.550;2023-04-28T06:16:16;31.33;;;10.13;;
77724;SDS011;66892;53.236;6.550;2023-04-28T06:18:43;31.38;;;10.27;;
77724;SDS011;66892;53.236;6.550;2023-04-28T06:21:09;29.52;;;9.70;;
77724;SDS011;66892;53.236;6.550;2023-04-28T06:23:35;28.35;;;10.45;;
77724;SDS011;66892;53.236;6.550;2023-04-28T06:26:03;31.48;;;9.85;;
77724;SDS011;66892;53.236;6.550;2023-04-28T06:28:29;28.60;;;9.43;;
77724;SDS011;66892;53.236;6.550;2023-04-28T06:30:55;30.95;;;9.02;;
77724;SDS011;66892;53.236;6.550;2023-04-28T06:33:22;27.98;;;9.38;;
77724;SDS011;66892;53.236;6.550;2023-04-28T06:35:48;22.83;;;8.85;;
77724;SDS011;66892;53.236;6.550;2023-04-28T06:38:14;24.23;;;8.20;;
77724;SDS011;66892;53.236;6.550;2023-04-28T06:40:40;29.40;;;9.88;;
77724;SDS011;66892;53.236;6.550;2023-04-28T06:43:06;23.60;;;8.85;;
77724;SDS011;66892;53.236;6.550;2023-04-28T06:45:32;24.52;;;8.85;;
77724;SDS011;66892;53.236;6.550;2023-04-28T06:47:58;24.58;;;9.88;;
77724;SDS011;66892;53.236;6.550;2023-04-28T06:50:26;27.25;;;10.02;;
77724;SDS011;66892;53.236;6.550;2023-04-28T06:52:52;26.52;;;9.63;;
77724;SDS011;66892;53.236;6.550;2023-04-28T06:55:18;33.13;;;11.18;;
77724;SDS011;66892;53.236;6.550;2023-04-28T06:57:44;24.38;;;8.63;;
77724;SDS011;66892;53.236;6.550;2023-04-28T07:00:11;28.65;;;8.68;;
77724;SDS011;66892;53.236;6.550;2023-04-28T07:02:38;27.10;;;10.02;;
77724;SDS011;66892;53.236;6.550;2023-04-28T07:05:04;29.83;;;10.38;;
77724;SDS011;66892;53.236;6.550;2023-04-28T07:07:32;25.15;;;9.23;;
77724;SDS011;66892;53.236;6.550;2023-04-28T07:09:58;25.42;;;10.25;;
77724;SDS011;66892;53.236;6.550;2023-04-28T07:12:26;26.75;;;9.93;;
77724;SDS011;66892;53.236;6.550;2023-04-28T07:14:52;26.10;;;9.60;;
77724;SDS011;66892;53.236;6.550;2023-04-28T07:17:18;29.15;;;10.35;;
77724;SDS011;66892;53.236;6.550;2023-04-28T07:19:44;25.85;;;10.02;;
77724;SDS011;66892;53.236;6.550;2023-04-28T07:22:10;27.80;;;9.27;;
77724;SDS011;66892;53.236;6.550;2023-04-28T07:24:38;29.17;;;10.23;;
77724;SDS011;66892;53.236;6.550;2023-04-28T07:27:04;27.45;;;9.73;;
77724;SDS011;66892;53.236;6.550;2023-04-28T07:29:30;21.67;;;8.38;;
77724;SDS011;66892;53.236;6.550;2023-04-28T07:31:59;27.67;;;9.88;;
77724;SDS011;66892;53.236;6.550;2023-04-28T07:34:26;33.83;;;11.20;;
77724;SDS011;66892;53.236;6.550;2023-04-28T07:36:52;26.80;;;9.45;;
77724;SDS011;66892;53.236;6.550;2023-04-28T07:39:18;27.58;;;9.75;;
77724;SDS011;66892;53.236;6.550;2023-04-28T07:41:46;29.48;;;9.85;;
77724;SDS011;66892;53.236;6.550;2023-04-28T07:44:12;27.23;;;9.82;;
77724;SDS011;66892;53.236;6.550;2023-04-28T07:46:38;26.48;;;9.32;;
77724;SDS011;66892;53.236;6.550;2023-04-28T07:49:04;27.85;;;9.85;;
77724;SDS011;66892;53.236;6.550;2023-04-28T07:51:31;29.38;;;10.57;;
77724;SDS011;66892;53.236;6.550;2023-04-28T07:53:57;30.60;;;10.23;;
77724;SDS011;66892;53.236;6.550;2023-04-28T07:56:23;27.23;;;10.23;;
77724;SDS011;66892;53.236;6.550;2023-04-28T07:58:51;26.55;;;9.60;;
77724;SDS011;66892;53.236;6.550;2023-04-28T08:01:17;29.15;;;10.35;;
77724;SDS011;66892;53.236;6.550;2023-04-28T08:03:43;26.60;;;10.25;;
77724;SDS011;66892;53.236;6.550;2023-04-28T08:06:10;27.25;;;10.65;;
77724;SDS011;66892;53.236;6.550;2023-04-28T08:08:36;29.83;;;10.02;;
77724;SDS011;66892;53.236;6.550;2023-04-28T08:11:02;28.98;;;10.30;;
77724;SDS011;66892;53.236;6.550;2023-04-28T08:13:28;29.70;;;9.88;;
77724;SDS011;66892;53.236;6.550;2023-04-28T08:15:55;29.73;;;11.23;;
77724;SDS011;66892;53.236;6.550;2023-04-28T08:18:22;32.85;;;11.15;;
77724;SDS011;66892;53.236;6.550;2023-04-28T08:20:48;32.00;;;11.52;;
77724;SDS011;66892;53.236;6.550;2023-04-28T08:23:14;27.83;;;10.38;;
77724;SDS011;66892;53.236;6.550;2023-04-28T08:25:40;34.33;;;10.13;;
77724;SDS011;66892;53.236;6.550;2023-04-28T08:28:07;25.67;;;10.23;;
77724;SDS011;66892;53.236;6.550;2023-04-28T08:30:33;31.23;;;10.40;;
77724;SDS011;66892;53.236;6.550;2023-04-28T08:33:00;29.90;;;9.95;;
77724;SDS011;66892;53.236;6.550;2023-04-28T08:35:26;29.67;;;10.98;;
77724;SDS011;66892;53.236;6.550;2023-04-28T08:37:52;32.38;;;10.98;;
77724;SDS011;66892;53.236;6.550;2023-04-28T08:40:19;33.35;;;10.20;;
77724;SDS011;66892;53.236;6.550;2023-04-28T08:42:45;30.33;;;11.85;;
77724;SDS011;66892;53.236;6.550;2023-04-28T08:45:12;28.45;;;10.63;;
77724;SDS011;66892;53.236;6.550;2023-04-28T08:47:39;27.60;;;10.38;;
77724;SDS011;66892;53.236;6.550;2023-04-28T08:50:11;28.00;;;10.23;;
77724;SDS011;66892;53.236;6.550;2023-04-28T08:52:38;32.50;;;10.63;;
77724;SDS011;66892;53.236;6.550;2023-04-28T08:55:06;31.95;;;11.65;;
77724;SDS011;66892;53.236;6.550;2023-04-28T08:57:34;28.60;;;11.25;;
77724;SDS011;66892;53.236;6.550;2023-04-28T09:00:03;27.60;;;10.98;;
77724;SDS011;66892;53.236;6.550;2023-04-28T09:02:30;35.35;;;11.40;;
77724;SDS011;66892;53.236;6.550;2023-04-28T09:04:56;32.67;;;11.65;;
77724;SDS011;66892;53.236;6.550;2023-04-28T09:07:24;31.48;;;12.60;;
77724;SDS011;66892;53.236;6.550;2023-04-28T09:10:02;31.83;;;11.32;;
77724;SDS011;66892;53.236;6.550;2023-04-28T09:12:42;30.85;;;11.00;;
77724;SDS011;66892;53.236;6.550;2023-04-28T09:15:08;37.90;;;12.68;;
77724;SDS011;66892;53.236;6.550;2023-04-28T09:17:45;36.42;;;12.00;;
77724;SDS011;66892;53.236;6.550;2023-04-28T09:20:18;33.03;;;12.02;;
77724;SDS011;66892;53.236;6.550;2023-04-28T09:22:46;35.78;;;12.50;;
77724;SDS011;66892;53.236;6.550;2023-04-28T09:25:12;27.17;;;11.13;;
77724;SDS011;66892;53.236;6.550;2023-04-28T09:27:39;34.50;;;12.20;;
77724;SDS011;66892;53.236;6.550;2023-04-28T09:30:05;33.65;;;12.40;;
77724;SDS011;66892;53.236;6.550;2023-04-28T09:32:33;30.20;;;11.88;;
77724;SDS011;66892;53.236;6.550;2023-04-28T09:34:59;36.42;;;12.07;;
77724;SDS011;66892;53.236;6.550;2023-04-28T09:37:26;29.38;;;11.63;;
77724;SDS011;66892;53.236;6.550;2023-04-28T09:39:57;31.92;;;11.10;;
77724;SDS011;66892;53.236;6.550;2023-04-28T09:42:32;27.55;;;10.95;;
77724;SDS011;66892;53.236;6.550;2023-04-28T09:47:27;28.50;;;10.48;;
77724;SDS011;66892;53.236;6.550;2023-04-28T09:49:54;25.00;;;9.65;;
77724;SDS011;66892;53.236;6.550;2023-04-28T09:52:21;27.02;;;10.77;;
77724;SDS011;66892;53.236;6.550;2023-04-28T09:54:48;24.63;;;9.95;;
77724;SDS011;66892;53.236;6.550;2023-04-28T09:57:17;26.20;;;10.35;;
77724;SDS011;66892;53.236;6.550;2023-04-28T09:59:45;26.65;;;10.73;;
77724;SDS011;66892;53.236;6.550;2023-04-28T10:02:13;27.83;;;10.77;;
77724;SDS011;66892;53.236;6.550;2023-04-28T10:04:40;26.83;;;10.75;;
77724;SDS011;66892;53.236;6.550;2023-04-28T10:07:07;30.48;;;10.43;;
77724;SDS011;66892;53.236;6.550;2023-04-28T10:09:33;28.17;;;10.77;;
77724;SDS011;66892;53.236;6.550;2023-04-28T10:11:59;24.08;;;10.70;;
77724;SDS011;66892;53.236;6.550;2023-04-28T10:14:28;28.88;;;11.98;;
77724;SDS011;66892;53.236;6.550;2023-04-28T10:16:56;25.75;;;10.73;;
77724;SDS011;66892;53.236;6.550;2023-04-28T10:19:23;29.23;;;11.18;;
77724;SDS011;66892;53.236;6.550;2023-04-28T10:21:52;26.17;;;12.20;;
77724;SDS011;66892;53.236;6.550;2023-04-28T10:24:27;29.50;;;11.70;;
77724;SDS011;66892;53.236;6.550;2023-04-28T10:27:01;30.25;;;10.88;;
77724;SDS011;66892;53.236;6.550;2023-04-28T10:29:31;31.15;;;12.70;;
77724;SDS011;66892;53.236;6.550;2023-04-28T10:32:20;33.53;;;11.63;;
77724;SDS011;66892;53.236;6.550;2023-04-28T10:34:48;29.48;;;11.57;;
77724;SDS011;66892;53.236;6.550;2023-04-28T10:37:14;28.52;;;11.10;;
77724;SDS011;66892;53.236;6.550;2023-04-28T10:42:50;29.90;;;12.82;;
77724;SDS011;66892;53.236;6.550;2023-04-28T10:48:18;31.27;;;12.18;;
77724;SDS011;66892;53.236;6.550;2023-04-28T10:50:55;31.50;;;12.10;;
77724;SDS011;66892;53.236;6.550;2023-04-28T10:59:54;30.17;;;12.02;;
77724;SDS011;66892;53.236;6.550;2023-04-28T11:02:52;26.90;;;11.75;;
77724;SDS011;66892;53.236;6.550;2023-04-28T11:05:20;30.75;;;13.10;;
77724;SDS011;66892;53.236;6.550;2023-04-28T11:13:47;32.20;;;14.13;;
77724;SDS011;66892;53.236;6.550;2023-04-28T11:16:14;35.17;;;15.25;;
77724;SDS011;66892;53.236;6.550;2023-04-28T11:18:49;36.13;;;14.82;;
77724;SDS011;66892;53.236;6.550;2023-04-28T11:21:21;31.17;;;13.00;;
77724;SDS011;66892;53.236;6.550;2023-04-28T11:23:48;35.15;;;13.90;;
77724;SDS011;66892;53.236;6.550;2023-04-28T11:26:15;35.58;;;14.15;;
77724;SDS011;66892;53.236;6.550;2023-04-28T11:28:46;35.95;;;14.60;;
77724;SDS011;66892;53.236;6.550;2023-04-28T11:31:13;32.25;;;14.25;;
77724;SDS011;66892;53.236;6.550;2023-04-28T11:33:49;37.50;;;15.23;;
77724;SDS011;66892;53.236;6.550;2023-04-28T11:36:26;38.92;;;15.63;;
77724;SDS011;66892;53.236;6.550;2023-04-28T11:38:56;37.25;;;15.63;;
77724;SDS011;66892;53.236;6.550;2023-04-28T11:41:22;40.40;;;15.63;;
77724;SDS011;66892;53.236;6.550;2023-04-28T11:43:49;33.60;;;14.98;;
77724;SDS011;66892;53.236;6.550;2023-04-28T11:46:16;41.80;;;14.93;;
77724;SDS011;66892;53.236;6.550;2023-04-28T11:48:43;38.72;;;16.40;;
77724;SDS011;66892;53.236;6.550;2023-04-28T11:51:09;39.22;;;16.48;;
77724;SDS011;66892;53.236;6.550;2023-04-28T11:53:53;40.00;;;15.75;;
77724;SDS011;66892;53.236;6.550;2023-04-28T11:56:19;32.45;;;14.85;;
77724;SDS011;66892;53.236;6.550;2023-04-28T11:58:45;37.47;;;17.48;;
77724;SDS011;66892;53.236;6.550;2023-04-28T12:01:24;36.38;;;15.65;;
77724;SDS011;66892;53.236;6.550;2023-04-28T12:03:50;42.08;;;16.02;;
77724;SDS011;66892;53.236;6.550;2023-04-28T12:06:16;38.95;;;15.45;;
77724;SDS011;66892;53.236;6.550;2023-04-28T12:08:43;39.22;;;14.85;;
77724;SDS011;66892;53.236;6.550;2023-04-28T12:11:11;39.35;;;15.07;;
77724;SDS011;66892;53.236;6.550;2023-04-28T12:13:38;43.55;;;16.40;;
77724;SDS011;66892;53.236;6.550;2023-04-28T12:16:05;37.20;;;15.90;;
77724;SDS011;66892;53.236;6.550;2023-04-28T12:18:32;39.42;;;16.58;;
77724;SDS011;66892;53.236;6.550;2023-04-28T12:20:59;43.80;;;16.88;;
77724;SDS011;66892;53.236;6.550;2023-04-28T12:23:29;39.65;;;17.20;;
77724;SDS011;66892;53.236;6.550;2023-04-28T12:25:58;35.90;;;15.07;;
77724;SDS011;66892;53.236;6.550;2023-04-28T12:28:36;33.15;;;15.05;;
77724;SDS011;66892;53.236;6.550;2023-04-28T12:31:05;34.83;;;15.35;;
77724;SDS011;66892;53.236;6.550;2023-04-28T12:33:35;37.85;;;16.55;;
77724;SDS011;66892;53.236;6.550;2023-04-28T12:36:05;36.05;;;14.63;;
77724;SDS011;66892;53.236;6.550;2023-04-28T12:38:32;36.17;;;15.45;;
77724;SDS011;66892;53.236;6.550;2023-04-28T12:40:58;37.08;;;15.85;;
77724;SDS011;66892;53.236;6.550;2023-04-28T12:43:25;34.72;;;15.60;;
77724;SDS011;66892;53.236;6.550;2023-04-28T12:45:54;37.08;;;16.05;;
77724;SDS011;66892;53.236;6.550;2023-04-28T12:48:21;35.25;;;15.15;;
77724;SDS011;66892;53.236;6.550;2023-04-28T12:50:50;40.80;;;17.05;;
77724;SDS011;66892;53.236;6.550;2023-04-28T12:53:16;41.47;;;16.67;;
77724;SDS011;66892;53.236;6.550;2023-04-28T12:55:43;40.10;;;18.10;;
77724;SDS011;66892;53.236;6.550;2023-04-28T12:58:09;44.08;;;17.63;;
77724;SDS011;66892;53.236;6.550;2023-04-28T13:00:35;42.83;;;17.63;;
77724;SDS011;66892;53.236;6.550;2023-04-28T13:03:02;42.35;;;17.17;;
77724;SDS011;66892;53.236;6.550;2023-04-28T13:05:28;41.00;;;17.38;;
77724;SDS011;66892;53.236;6.550;2023-04-28T13:07:56;44.30;;;17.52;;
77724;SDS011;66892;53.236;6.550;2023-04-28T13:10:22;41.58;;;16.83;;
77724;SDS011;66892;53.236;6.550;2023-04-28T13:12:48;41.80;;;17.40;;
77724;SDS011;66892;53.236;6.550;2023-04-28T13:15:14;41.83;;;17.13;;
77724;SDS011;66892;53.236;6.550;2023-04-28T13:17:40;45.40;;;17.63;;
77724;SDS011;66892;53.236;6.550;2023-04-28T13:20:08;44.22;;;17.45;;
77724;SDS011;66892;53.236;6.550;2023-04-28T13:22:35;49.20;;;17.65;;
77724;SDS011;66892;53.236;6.550;2023-04-28T13:25:01;41.70;;;17.27;;
77724;SDS011;66892;53.236;6.550;2023-04-28T13:27:27;48.50;;;18.38;;
77724;SDS011;66892;53.236;6.550;2023-04-28T13:29:55;47.42;;;19.23;;
77724;SDS011;66892;53.236;6.550;2023-04-28T13:32:23;48.63;;;18.83;;
77724;SDS011;66892;53.236;6.550;2023-04-28T13:34:49;43.15;;;18.63;;
77724;SDS011;66892;53.236;6.550;2023-04-28T13:37:17;45.05;;;18.40;;
77724;SDS011;66892;53.236;6.550;2023-04-28T13:39:43;52.83;;;19.58;;
77724;SDS011;66892;53.236;6.550;2023-04-28T13:42:09;48.53;;;20.25;;
77724;SDS011;66892;53.236;6.550;2023-04-28T13:44:37;45.97;;;18.15;;
77724;SDS011;66892;53.236;6.550;2023-04-28T13:47:03;46.13;;;18.23;;
77724;SDS011;66892;53.236;6.550;2023-04-28T13:49:33;48.15;;;18.75;;
77724;SDS011;66892;53.236;6.550;2023-04-28T13:51:59;55.17;;;20.10;;
77724;SDS011;66892;53.236;6.550;2023-04-28T13:54:29;50.88;;;21.17;;
77724;SDS011;66892;53.236;6.550;2023-04-28T13:56:55;52.65;;;20.77;;
77724;SDS011;66892;53.236;6.550;2023-04-28T13:59:21;48.20;;;19.30;;
77724;SDS011;66892;53.236;6.550;2023-04-28T14:01:47;48.35;;;18.65;;
77724;SDS011;66892;53.236;6.550;2023-04-28T14:04:13;45.78;;;19.13;;
77724;SDS011;66892;53.236;6.550;2023-04-28T14:06:40;50.47;;;20.05;;
77724;SDS011;66892;53.236;6.550;2023-04-28T14:09:06;50.72;;;19.40;;
77724;SDS011;66892;53.236;6.550;2023-04-28T14:11:34;52.90;;;20.80;;
77724;SDS011;66892;53.236;6.550;2023-04-28T14:14:00;54.33;;;20.45;;
77724;SDS011;66892;53.236;6.550;2023-04-28T14:16:26;53.08;;;22.02;;
77724;SDS011;66892;53.236;6.550;2023-04-28T14:18:53;59.70;;;21.75;;
77724;SDS011;66892;53.236;6.550;2023-04-28T14:21:20;56.10;;;21.65;;
77724;SDS011;66892;53.236;6.550;2023-04-28T14:23:46;57.88;;;22.00;;
77724;SDS011;66892;53.236;6.550;2023-04-28T14:26:12;55.13;;;21.67;;
77724;SDS011;66892;53.236;6.550;2023-04-28T14:28:39;55.58;;;22.40;;
77724;SDS011;66892;53.236;6.550;2023-04-28T14:31:07;58.65;;;21.65;;
77724;SDS011;66892;53.236;6.550;2023-04-28T14:33:33;67.22;;;22.80;;
77724;SDS011;66892;53.236;6.550;2023-04-28T14:35:59;55.85;;;21.88;;
77724;SDS011;66892;53.236;6.550;2023-04-28T14:38:26;62.63;;;22.85;;
77724;SDS011;66892;53.236;6.550;2023-04-28T14:40:53;60.38;;;23.17;;
77724;SDS011;66892;53.236;6.550;2023-04-28T14:43:19;59.00;;;22.70;;
77724;SDS011;66892;53.236;6.550;2023-04-28T14:45:46;63.80;;;22.70;;